sensor_id;sensor_type;location;lat;lon;timestamp;temperature;humidity
16503;DHT22;53067;48.114;11.694;2022-12-20T00:01:29;2.90;88.60
16503;DHT22;53067;48.114;11.694;2022-12-20T00:03:53;2.90;87.80
16503;DHT22;53067;48.114;11.694;2022-12-20T00:06:22;2.80;87.80
16503;DHT22;53067;48.114;11.694;2022-12-20T00:08:58;2.80;88.00
16503;DHT22;53067;48.114;11.694;2022-12-20T00:11:27;2.80;88.10
16503;DHT22;53067;48.114;11.694;2022-12-20T00:13:55;2.80;88.30
16503;DHT22;53067;48.114;11.694;2022-12-20T00:16:25;2.80;87.70
16503;DHT22;53067;48.114;11.694;2022-12-20T00:18:56;2.80;88.50
16503;DHT22;53067;48.114;11.694;2022-12-20T00:21:24;2.80;88.50
16503;DHT22;53067;48.114;11.694;2022-12-20T00:23:53;2.80;88.30
16503;DHT22;53067;48.114;11.694;2022-12-20T00:26:24;2.80;88.40
16503;DHT22;53067;48.114;11.694;2022-12-20T00:28:52;2.80;88.20
16503;DHT22;53067;48.114;11.694;2022-12-20T00:31:20;2.90;88.20
16503;DHT22;53067;48.114;11.694;2022-12-20T00:33:50;2.80;88.10
16503;DHT22;53067;48.114;11.694;2022-12-20T00:36:18;2.90;88.20
16503;DHT22;53067;48.114;11.694;2022-12-20T00:38:47;2.90;88.10
16503;DHT22;53067;48.114;11.694;2022-12-20T00:41:18;2.80;88.20
16503;DHT22;53067;48.114;11.694;2022-12-20T00:43:47;2.80;88.50
16503;DHT22;53067;48.114;11.694;2022-12-20T00:46:16;2.80;88.60
16503;DHT22;53067;48.114;11.694;2022-12-20T00:48:44;2.90;88.70
16503;DHT22;53067;48.114;11.694;2022-12-20T00:51:15;2.90;88.80
16503;DHT22;53067;48.114;11.694;2022-12-20T00:53:43;2.90;88.90
16503;DHT22;53067;48.114;11.694;2022-12-20T00:56:11;2.90;88.90
16503;DHT22;53067;48.114;11.694;2022-12-20T00:58:40;2.90;89.00
16503;DHT22;53067;48.114;11.694;2022-12-20T01:01:26;2.90;89.20
16503;DHT22;53067;48.114;11.694;2022-12-20T01:03:54;2.90;89.30
16503;DHT22;53067;48.114;11.694;2022-12-20T01:06:22;3.00;89.40
16503;DHT22;53067;48.114;11.694;2022-12-20T01:08:51;3.00;89.50
16503;DHT22;53067;48.114;11.694;2022-12-20T01:11:24;3.00;89.60
16503;DHT22;53067;48.114;11.694;2022-12-20T01:13:54;3.00;89.60
16503;DHT22;53067;48.114;11.694;2022-12-20T01:16:26;3.00;89.40
16503;DHT22;53067;48.114;11.694;2022-12-20T01:18:53;3.00;89.90
16503;DHT22;53067;48.114;11.694;2022-12-20T01:21:22;3.00;89.80
16503;DHT22;53067;48.114;11.694;2022-12-20T01:23:50;3.00;89.80
16503;DHT22;53067;48.114;11.694;2022-12-20T01:26:19;3.10;89.90
16503;DHT22;53067;48.114;11.694;2022-12-20T01:28:50;3.00;89.90
16503;DHT22;53067;48.114;11.694;2022-12-20T01:31:18;3.10;89.40
16503;DHT22;53067;48.114;11.694;2022-12-20T01:33:47;3.10;89.70
16503;DHT22;53067;48.114;11.694;2022-12-20T01:36:19;3.10;89.60
16503;DHT22;53067;48.114;11.694;2022-12-20T01:38:46;3.10;89.70
16503;DHT22;53067;48.114;11.694;2022-12-20T01:41:19;3.10;89.50
16503;DHT22;53067;48.114;11.694;2022-12-20T01:43:55;3.10;89.40
16503;DHT22;53067;48.114;11.694;2022-12-20T01:46:25;3.10;89.30
16503;DHT22;53067;48.114;11.694;2022-12-20T01:48:55;3.10;89.40
16503;DHT22;53067;48.114;11.694;2022-12-20T01:51:23;3.20;89.30
16503;DHT22;53067;48.114;11.694;2022-12-20T01:53:59;3.10;89.30
16503;DHT22;53067;48.114;11.694;2022-12-20T01:56:22;3.10;89.40
16503;DHT22;53067;48.114;11.694;2022-12-20T01:58:51;3.20;89.20
16503;DHT22;53067;48.114;11.694;2022-12-20T02:01:20;3.20;89.20
16503;DHT22;53067;48.114;11.694;2022-12-20T02:03:57;3.20;89.00
16503;DHT22;53067;48.114;11.694;2022-12-20T02:06:26;3.20;89.00
16503;DHT22;53067;48.114;11.694;2022-12-20T02:08:57;3.20;88.90
16503;DHT22;53067;48.114;11.694;2022-12-20T02:11:43;3.20;89.00
16503;DHT22;53067;48.114;11.694;2022-12-20T02:14:27;3.10;89.10
16503;DHT22;53067;48.114;11.694;2022-12-20T02:17:05;3.20;89.40
16503;DHT22;53067;48.114;11.694;2022-12-20T02:22:25;3.10;90.00
16503;DHT22;53067;48.114;11.694;2022-12-20T02:27:56;3.20;89.60
16503;DHT22;53067;48.114;11.694;2022-12-20T02:30:23;3.20;89.70
16503;DHT22;53067;48.114;11.694;2022-12-20T02:32:56;3.20;89.90
16503;DHT22;53067;48.114;11.694;2022-12-20T02:35:26;3.20;89.80
16503;DHT22;53067;48.114;11.694;2022-12-20T02:37:57;3.20;89.60
16503;DHT22;53067;48.114;11.694;2022-12-20T02:40:39;3.30;89.60
16503;DHT22;53067;48.114;11.694;2022-12-20T02:43:12;3.30;89.50
16503;DHT22;53067;48.114;11.694;2022-12-20T02:45:59;3.30;88.90
16503;DHT22;53067;48.114;11.694;2022-12-20T02:48:30;3.30;89.10
16503;DHT22;53067;48.114;11.694;2022-12-20T02:50:59;3.30;89.20
16503;DHT22;53067;48.114;11.694;2022-12-20T02:53:29;3.30;89.30
16503;DHT22;53067;48.114;11.694;2022-12-20T02:56:06;3.30;89.40
16503;DHT22;53067;48.114;11.694;2022-12-20T03:01:23;3.30;89.20
16503;DHT22;53067;48.114;11.694;2022-12-20T03:03:51;3.30;89.30
16503;DHT22;53067;48.114;11.694;2022-12-20T03:06:20;3.30;89.40
16503;DHT22;53067;48.114;11.694;2022-12-20T03:08:47;3.30;89.50
16503;DHT22;53067;48.114;11.694;2022-12-20T03:11:15;3.30;89.30
16503;DHT22;53067;48.114;11.694;2022-12-20T03:13:42;3.30;89.10
16503;DHT22;53067;48.114;11.694;2022-12-20T03:16:11;3.30;89.20
16503;DHT22;53067;48.114;11.694;2022-12-20T03:18:39;3.30;89.30
16503;DHT22;53067;48.114;11.694;2022-12-20T03:21:06;3.30;89.10
16503;DHT22;53067;48.114;11.694;2022-12-20T03:23:34;3.30;89.10
16503;DHT22;53067;48.114;11.694;2022-12-20T03:26:01;3.30;89.00
16503;DHT22;53067;48.114;11.694;2022-12-20T03:28:29;3.40;89.20
16503;DHT22;53067;48.114;11.694;2022-12-20T03:30:56;3.30;89.10
16503;DHT22;53067;48.114;11.694;2022-12-20T03:33:24;3.30;89.20
16503;DHT22;53067;48.114;11.694;2022-12-20T03:35:51;3.40;89.20
16503;DHT22;53067;48.114;11.694;2022-12-20T03:38:19;3.30;89.10
16503;DHT22;53067;48.114;11.694;2022-12-20T03:40:46;3.30;89.10
16503;DHT22;53067;48.114;11.694;2022-12-20T03:43:14;3.40;89.70
16503;DHT22;53067;48.114;11.694;2022-12-20T03:45:41;3.40;89.30
16503;DHT22;53067;48.114;11.694;2022-12-20T03:48:09;3.40;89.30
16503;DHT22;53067;48.114;11.694;2022-12-20T03:50:36;3.40;89.30
16503;DHT22;53067;48.114;11.694;2022-12-20T03:53:04;3.40;89.20
16503;DHT22;53067;48.114;11.694;2022-12-20T03:55:32;3.40;89.20
16503;DHT22;53067;48.114;11.694;2022-12-20T03:57:59;3.40;89.20
16503;DHT22;53067;48.114;11.694;2022-12-20T04:00:27;3.40;89.40
16503;DHT22;53067;48.114;11.694;2022-12-20T04:02:54;3.40;89.40
16503;DHT22;53067;48.114;11.694;2022-12-20T04:05:22;3.40;89.30
16503;DHT22;53067;48.114;11.694;2022-12-20T04:07:49;3.40;89.40
16503;DHT22;53067;48.114;11.694;2022-12-20T04:10:17;3.40;89.50
16503;DHT22;53067;48.114;11.694;2022-12-20T04:12:44;3.40;89.40
16503;DHT22;53067;48.114;11.694;2022-12-20T04:15:12;3.40;89.30
16503;DHT22;53067;48.114;11.694;2022-12-20T04:17:39;3.40;89.30
16503;DHT22;53067;48.114;11.694;2022-12-20T04:20:08;3.50;89.40
16503;DHT22;53067;48.114;11.694;2022-12-20T04:22:50;3.50;89.30
16503;DHT22;53067;48.114;11.694;2022-12-20T04:25:19;3.50;89.20
16503;DHT22;53067;48.114;11.694;2022-12-20T04:27:47;3.40;89.20
16503;DHT22;53067;48.114;11.694;2022-12-20T04:30:15;3.50;89.20
16503;DHT22;53067;48.114;11.694;2022-12-20T04:32:42;3.50;89.10
16503;DHT22;53067;48.114;11.694;2022-12-20T04:35:10;3.40;89.20
16503;DHT22;53067;48.114;11.694;2022-12-20T04:37:37;3.50;89.10
16503;DHT22;53067;48.114;11.694;2022-12-20T04:40:06;3.50;89.20
16503;DHT22;53067;48.114;11.694;2022-12-20T04:42:34;3.50;89.10
16503;DHT22;53067;48.114;11.694;2022-12-20T04:45:01;3.50;89.40
16503;DHT22;53067;48.114;11.694;2022-12-20T04:47:29;3.50;89.40
16503;DHT22;53067;48.114;11.694;2022-12-20T04:49:57;3.50;89.10
16503;DHT22;53067;48.114;11.694;2022-12-20T04:52:24;3.50;88.90
16503;DHT22;53067;48.114;11.694;2022-12-20T04:55:10;3.50;89.50
16503;DHT22;53067;48.114;11.694;2022-12-20T04:57:37;3.50;88.90
16503;DHT22;53067;48.114;11.694;2022-12-20T05:00:05;3.50;88.80
16503;DHT22;53067;48.114;11.694;2022-12-20T05:02:33;3.40;88.70
16503;DHT22;53067;48.114;11.694;2022-12-20T05:05:01;3.50;88.80
16503;DHT22;53067;48.114;11.694;2022-12-20T05:07:28;3.50;88.80
16503;DHT22;53067;48.114;11.694;2022-12-20T05:09:56;3.50;89.10
16503;DHT22;53067;48.114;11.694;2022-12-20T05:12:23;3.40;89.70
16503;DHT22;53067;48.114;11.694;2022-12-20T05:14:51;3.40;89.80
16503;DHT22;53067;48.114;11.694;2022-12-20T05:17:18;3.50;89.50
16503;DHT22;53067;48.114;11.694;2022-12-20T05:19:46;3.50;89.30
16503;DHT22;53067;48.114;11.694;2022-12-20T05:22:13;3.50;89.20
16503;DHT22;53067;48.114;11.694;2022-12-20T05:24:59;3.50;89.20
16503;DHT22;53067;48.114;11.694;2022-12-20T05:27:44;3.50;89.20
16503;DHT22;53067;48.114;11.694;2022-12-20T05:30:12;3.50;89.20
16503;DHT22;53067;48.114;11.694;2022-12-20T05:32:43;3.50;89.20
16503;DHT22;53067;48.114;11.694;2022-12-20T05:35:10;3.50;89.10
16503;DHT22;53067;48.114;11.694;2022-12-20T05:37:38;3.50;88.80
16503;DHT22;53067;48.114;11.694;2022-12-20T05:40:06;3.50;88.70
16503;DHT22;53067;48.114;11.694;2022-12-20T05:42:34;3.50;88.90
16503;DHT22;53067;48.114;11.694;2022-12-20T05:45:02;3.50;88.80
16503;DHT22;53067;48.114;11.694;2022-12-20T05:47:29;3.60;88.80
16503;DHT22;53067;48.114;11.694;2022-12-20T05:50:03;3.50;88.60
16503;DHT22;53067;48.114;11.694;2022-12-20T05:52:31;3.50;88.50
16503;DHT22;53067;48.114;11.694;2022-12-20T05:54:58;3.50;88.70
16503;DHT22;53067;48.114;11.694;2022-12-20T05:57:26;3.60;88.70
16503;DHT22;53067;48.114;11.694;2022-12-20T05:59:54;3.50;88.70
16503;DHT22;53067;48.114;11.694;2022-12-20T06:02:21;3.60;88.90
16503;DHT22;53067;48.114;11.694;2022-12-20T06:04:49;3.60;88.90
16503;DHT22;53067;48.114;11.694;2022-12-20T06:07:16;3.60;88.80
16503;DHT22;53067;48.114;11.694;2022-12-20T06:09:45;3.60;88.70
16503;DHT22;53067;48.114;11.694;2022-12-20T06:12:12;3.60;88.70
16503;DHT22;53067;48.114;11.694;2022-12-20T06:14:39;3.60;88.90
16503;DHT22;53067;48.114;11.694;2022-12-20T06:17:07;3.60;88.90
16503;DHT22;53067;48.114;11.694;2022-12-20T06:19:34;3.60;89.10
16503;DHT22;53067;48.114;11.694;2022-12-20T06:22:02;3.60;89.10
16503;DHT22;53067;48.114;11.694;2022-12-20T06:24:30;3.60;89.10
16503;DHT22;53067;48.114;11.694;2022-12-20T06:26:58;3.60;89.10
16503;DHT22;53067;48.114;11.694;2022-12-20T06:29:25;3.60;89.10
16503;DHT22;53067;48.114;11.694;2022-12-20T06:31:53;3.70;89.20
16503;DHT22;53067;48.114;11.694;2022-12-20T06:34:21;3.60;89.10
16503;DHT22;53067;48.114;11.694;2022-12-20T06:36:48;3.70;88.80
16503;DHT22;53067;48.114;11.694;2022-12-20T06:39:16;3.70;88.90
16503;DHT22;53067;48.114;11.694;2022-12-20T06:41:43;3.70;88.50
16503;DHT22;53067;48.114;11.694;2022-12-20T06:44:11;3.70;88.50
16503;DHT22;53067;48.114;11.694;2022-12-20T06:46:38;3.70;88.40
16503;DHT22;53067;48.114;11.694;2022-12-20T06:49:06;3.70;88.40
16503;DHT22;53067;48.114;11.694;2022-12-20T06:51:34;3.70;88.50
16503;DHT22;53067;48.114;11.694;2022-12-20T06:54:01;3.70;88.40
16503;DHT22;53067;48.114;11.694;2022-12-20T06:56:29;3.70;88.20
16503;DHT22;53067;48.114;11.694;2022-12-20T06:58:56;3.70;88.90
16503;DHT22;53067;48.114;11.694;2022-12-20T07:01:24;3.70;88.20
16503;DHT22;53067;48.114;11.694;2022-12-20T07:03:51;3.70;88.50
16503;DHT22;53067;48.114;11.694;2022-12-20T07:06:19;3.70;88.50
16503;DHT22;53067;48.114;11.694;2022-12-20T07:08:46;3.70;88.40
16503;DHT22;53067;48.114;11.694;2022-12-20T07:11:14;3.70;88.60
16503;DHT22;53067;48.114;11.694;2022-12-20T07:13:41;3.70;88.60
16503;DHT22;53067;48.114;11.694;2022-12-20T07:16:09;3.70;88.50
16503;DHT22;53067;48.114;11.694;2022-12-20T07:18:36;3.70;88.40
16503;DHT22;53067;48.114;11.694;2022-12-20T07:21:05;3.80;88.50
16503;DHT22;53067;48.114;11.694;2022-12-20T07:23:32;3.80;88.40
16503;DHT22;53067;48.114;11.694;2022-12-20T07:26:01;3.80;88.40
16503;DHT22;53067;48.114;11.694;2022-12-20T07:28:29;3.80;88.40
16503;DHT22;53067;48.114;11.694;2022-12-20T07:31:01;3.80;88.60
16503;DHT22;53067;48.114;11.694;2022-12-20T07:33:30;3.80;88.70
16503;DHT22;53067;48.114;11.694;2022-12-20T07:36:05;3.80;89.00
16503;DHT22;53067;48.114;11.694;2022-12-20T07:38:34;3.80;89.40
16503;DHT22;53067;48.114;11.694;2022-12-20T07:41:13;3.80;89.50
16503;DHT22;53067;48.114;11.694;2022-12-20T07:43:37;3.90;89.60
16503;DHT22;53067;48.114;11.694;2022-12-20T07:46:05;3.90;89.60
16503;DHT22;53067;48.114;11.694;2022-12-20T07:48:35;3.90;89.60
16503;DHT22;53067;48.114;11.694;2022-12-20T07:51:12;4.00;89.60
16503;DHT22;53067;48.114;11.694;2022-12-20T07:53:42;4.00;89.50
16503;DHT22;53067;48.114;11.694;2022-12-20T07:56:11;4.00;89.40
16503;DHT22;53067;48.114;11.694;2022-12-20T07:58:40;4.10;89.40
16503;DHT22;53067;48.114;11.694;2022-12-20T08:01:10;4.10;89.50
16503;DHT22;53067;48.114;11.694;2022-12-20T08:03:45;4.10;89.60
16503;DHT22;53067;48.114;11.694;2022-12-20T08:06:13;4.10;89.60
16503;DHT22;53067;48.114;11.694;2022-12-20T08:08:44;4.20;89.60
16503;DHT22;53067;48.114;11.694;2022-12-20T08:11:12;4.20;89.40
16503;DHT22;53067;48.114;11.694;2022-12-20T08:13:40;4.30;89.30
16503;DHT22;53067;48.114;11.694;2022-12-20T08:16:08;4.30;89.70
16503;DHT22;53067;48.114;11.694;2022-12-20T08:18:35;4.30;89.70
16503;DHT22;53067;48.114;11.694;2022-12-20T08:21:03;4.30;89.60
16503;DHT22;53067;48.114;11.694;2022-12-20T08:23:31;4.40;89.50
16503;DHT22;53067;48.114;11.694;2022-12-20T08:26:02;4.40;89.30
16503;DHT22;53067;48.114;11.694;2022-12-20T08:28:29;4.50;89.10
16503;DHT22;53067;48.114;11.694;2022-12-20T08:31:02;4.60;88.90
16503;DHT22;53067;48.114;11.694;2022-12-20T08:33:32;4.60;88.20
16503;DHT22;53067;48.114;11.694;2022-12-20T08:36:02;4.60;88.00
16503;DHT22;53067;48.114;11.694;2022-12-20T08:38:31;4.60;88.60
16503;DHT22;53067;48.114;11.694;2022-12-20T08:41:07;4.70;87.70
16503;DHT22;53067;48.114;11.694;2022-12-20T08:43:33;4.70;87.90
16503;DHT22;53067;48.114;11.694;2022-12-20T08:46:01;4.70;87.80
16503;DHT22;53067;48.114;11.694;2022-12-20T08:48:30;4.70;87.80
16503;DHT22;53067;48.114;11.694;2022-12-20T08:51:00;4.80;87.90
16503;DHT22;53067;48.114;11.694;2022-12-20T08:53:29;4.80;87.90
16503;DHT22;53067;48.114;11.694;2022-12-20T08:56:08;4.80;88.10
16503;DHT22;53067;48.114;11.694;2022-12-20T08:58:36;4.80;88.10
16503;DHT22;53067;48.114;11.694;2022-12-20T09:01:05;4.80;88.10
16503;DHT22;53067;48.114;11.694;2022-12-20T09:03:35;4.80;88.10
16503;DHT22;53067;48.114;11.694;2022-12-20T09:06:15;4.80;88.10
16503;DHT22;53067;48.114;11.694;2022-12-20T09:08:38;4.90;88.00
16503;DHT22;53067;48.114;11.694;2022-12-20T09:11:10;4.90;87.80
16503;DHT22;53067;48.114;11.694;2022-12-20T09:13:40;4.90;88.00
16503;DHT22;53067;48.114;11.694;2022-12-20T09:16:09;5.00;88.10
16503;DHT22;53067;48.114;11.694;2022-12-20T09:18:36;5.00;87.60
16503;DHT22;53067;48.114;11.694;2022-12-20T09:21:05;5.00;87.60
16503;DHT22;53067;48.114;11.694;2022-12-20T09:23:34;5.10;87.40
16503;DHT22;53067;48.114;11.694;2022-12-20T09:26:14;5.10;87.30
16503;DHT22;53067;48.114;11.694;2022-12-20T09:28:42;5.20;87.30
16503;DHT22;53067;48.114;11.694;2022-12-20T09:31:18;5.20;87.00
16503;DHT22;53067;48.114;11.694;2022-12-20T09:33:46;5.30;87.50
16503;DHT22;53067;48.114;11.694;2022-12-20T09:36:16;5.30;87.30
16503;DHT22;53067;48.114;11.694;2022-12-20T09:38:50;5.40;87.10
16503;DHT22;53067;48.114;11.694;2022-12-20T09:41:41;5.40;86.80
16503;DHT22;53067;48.114;11.694;2022-12-20T09:44:24;5.50;86.50
16503;DHT22;53067;48.114;11.694;2022-12-20T09:47:14;5.50;86.50
16503;DHT22;53067;48.114;11.694;2022-12-20T09:49:40;5.50;86.30
16503;DHT22;53067;48.114;11.694;2022-12-20T09:57:53;5.70;85.70
16503;DHT22;53067;48.114;11.694;2022-12-20T10:00:19;5.70;85.70
16503;DHT22;53067;48.114;11.694;2022-12-20T10:02:47;5.70;85.40
16503;DHT22;53067;48.114;11.694;2022-12-20T10:05:24;5.80;85.20
16503;DHT22;53067;48.114;11.694;2022-12-20T10:07:51;5.80;85.40
16503;DHT22;53067;48.114;11.694;2022-12-20T10:10:58;5.90;84.90
16503;DHT22;53067;48.114;11.694;2022-12-20T10:16:16;6.00;84.50
16503;DHT22;53067;48.114;11.694;2022-12-20T10:24:12;6.20;83.60
16503;DHT22;53067;48.114;11.694;2022-12-20T10:26:36;6.20;83.40
16503;DHT22;53067;48.114;11.694;2022-12-20T10:29:04;6.30;83.10
16503;DHT22;53067;48.114;11.694;2022-12-20T10:31:32;6.40;82.90
16503;DHT22;53067;48.114;11.694;2022-12-20T10:34:01;6.50;82.50
16503;DHT22;53067;48.114;11.694;2022-12-20T10:36:34;6.60;82.20
16503;DHT22;53067;48.114;11.694;2022-12-20T10:39:08;6.60;81.80
16503;DHT22;53067;48.114;11.694;2022-12-20T10:44:22;6.60;81.50
16503;DHT22;53067;48.114;11.694;2022-12-20T10:46:53;6.70;81.30
16503;DHT22;53067;48.114;11.694;2022-12-20T10:49:31;6.70;81.40
16503;DHT22;53067;48.114;11.694;2022-12-20T10:52:10;6.80;82.30
16503;DHT22;53067;48.114;11.694;2022-12-20T10:54:37;6.90;82.70
16503;DHT22;53067;48.114;11.694;2022-12-20T10:57:20;7.00;83.80
16503;DHT22;53067;48.114;11.694;2022-12-20T10:59:53;7.10;82.70
16503;DHT22;53067;48.114;11.694;2022-12-20T11:02:27;7.10;82.20
16503;DHT22;53067;48.114;11.694;2022-12-20T11:05:00;7.00;82.20
16503;DHT22;53067;48.114;11.694;2022-12-20T11:07:32;7.10;82.20
16503;DHT22;53067;48.114;11.694;2022-12-20T11:10:16;7.10;81.50
16503;DHT22;53067;48.114;11.694;2022-12-20T11:12:31;7.20;81.10
16503;DHT22;53067;48.114;11.694;2022-12-20T11:15:18;7.20;80.40
16503;DHT22;53067;48.114;11.694;2022-12-20T11:17:42;7.20;80.30
16503;DHT22;53067;48.114;11.694;2022-12-20T11:20:30;7.20;81.10
16503;DHT22;53067;48.114;11.694;2022-12-20T11:25:50;7.30;82.00
16503;DHT22;53067;48.114;11.694;2022-12-20T11:33:40;7.40;80.00
16503;DHT22;53067;48.114;11.694;2022-12-20T11:38:51;7.50;79.80
16503;DHT22;53067;48.114;11.694;2022-12-20T11:41:21;7.60;79.40
16503;DHT22;53067;48.114;11.694;2022-12-20T11:44:05;7.80;79.30
16503;DHT22;53067;48.114;11.694;2022-12-20T11:46:55;7.90;79.00
16503;DHT22;53067;48.114;11.694;2022-12-20T11:49:37;8.00;78.50
16503;DHT22;53067;48.114;11.694;2022-12-20T11:52:51;8.20;78.20
16503;DHT22;53067;48.114;11.694;2022-12-20T11:54:41;8.30;77.80
16503;DHT22;53067;48.114;11.694;2022-12-20T11:57:22;8.40;76.90
16503;DHT22;53067;48.114;11.694;2022-12-20T11:59:56;8.50;75.80
16503;DHT22;53067;48.114;11.694;2022-12-20T12:02:49;8.60;75.50
16503;DHT22;53067;48.114;11.694;2022-12-20T12:05:22;8.70;75.40
16503;DHT22;53067;48.114;11.694;2022-12-20T12:07:52;8.80;75.30
16503;DHT22;53067;48.114;11.694;2022-12-20T12:10:25;8.90;75.80
16503;DHT22;53067;48.114;11.694;2022-12-20T12:13:02;8.90;75.70
16503;DHT22;53067;48.114;11.694;2022-12-20T12:15:45;8.90;75.30
16503;DHT22;53067;48.114;11.694;2022-12-20T12:18:17;8.80;75.80
16503;DHT22;53067;48.114;11.694;2022-12-20T12:20:52;8.70;77.50
16503;DHT22;53067;48.114;11.694;2022-12-20T12:23:38;8.60;77.40
16503;DHT22;53067;48.114;11.694;2022-12-20T12:26:25;8.50;77.10
16503;DHT22;53067;48.114;11.694;2022-12-20T12:28:56;8.40;76.50
16503;DHT22;53067;48.114;11.694;2022-12-20T12:31:33;8.30;77.90
16503;DHT22;53067;48.114;11.694;2022-12-20T12:37:18;8.20;78.10
16503;DHT22;53067;48.114;11.694;2022-12-20T12:40:05;8.10;77.80
16503;DHT22;53067;48.114;11.694;2022-12-20T12:42:50;8.10;77.70
16503;DHT22;53067;48.114;11.694;2022-12-20T12:45:15;8.20;77.20
16503;DHT22;53067;48.114;11.694;2022-12-20T12:47:52;8.10;76.90
16503;DHT22;53067;48.114;11.694;2022-12-20T12:50:29;8.10;77.20
16503;DHT22;53067;48.114;11.694;2022-12-20T12:53:11;8.00;77.10
16503;DHT22;53067;48.114;11.694;2022-12-20T13:00:54;7.90;77.40
16503;DHT22;53067;48.114;11.694;2022-12-20T13:11:34;7.60;78.10
16503;DHT22;53067;48.114;11.694;2022-12-20T13:19:39;7.50;79.10
16503;DHT22;53067;48.114;11.694;2022-12-20T13:25:01;7.40;79.60
16503;DHT22;53067;48.114;11.694;2022-12-20T13:27:37;7.40;79.10
16503;DHT22;53067;48.114;11.694;2022-12-20T13:33:02;7.30;80.00
16503;DHT22;53067;48.114;11.694;2022-12-20T13:35:31;7.20;79.80
16503;DHT22;53067;48.114;11.694;2022-12-20T13:40:46;7.20;80.20
16503;DHT22;53067;48.114;11.694;2022-12-20T13:45:53;7.00;80.20
16503;DHT22;53067;48.114;11.694;2022-12-20T13:51:20;6.90;79.90
16503;DHT22;53067;48.114;11.694;2022-12-20T13:53:53;6.80;80.60
16503;DHT22;53067;48.114;11.694;2022-12-20T13:58:57;6.80;81.00
16503;DHT22;53067;48.114;11.694;2022-12-20T14:01:25;6.80;80.90
16503;DHT22;53067;48.114;11.694;2022-12-20T14:03:53;6.70;80.60
16503;DHT22;53067;48.114;11.694;2022-12-20T14:06:23;6.70;80.60
16503;DHT22;53067;48.114;11.694;2022-12-20T14:08:51;6.60;80.50
16503;DHT22;53067;48.114;11.694;2022-12-20T14:11:25;6.60;80.50
16503;DHT22;53067;48.114;11.694;2022-12-20T14:14:01;6.60;80.70
16503;DHT22;53067;48.114;11.694;2022-12-20T14:16:30;6.50;80.90
16503;DHT22;53067;48.114;11.694;2022-12-20T14:19:04;6.50;81.70
16503;DHT22;53067;48.114;11.694;2022-12-20T14:21:34;6.60;81.00
16503;DHT22;53067;48.114;11.694;2022-12-20T14:24:03;6.60;80.90
16503;DHT22;53067;48.114;11.694;2022-12-20T14:26:43;6.60;80.80
16503;DHT22;53067;48.114;11.694;2022-12-20T14:29:01;6.70;80.80
16503;DHT22;53067;48.114;11.694;2022-12-20T14:31:39;6.70;80.80
16503;DHT22;53067;48.114;11.694;2022-12-20T14:36:46;6.80;80.60
16503;DHT22;53067;48.114;11.694;2022-12-20T14:39:30;6.80;81.00
16503;DHT22;53067;48.114;11.694;2022-12-20T14:42:12;6.70;80.60
16503;DHT22;53067;48.114;11.694;2022-12-20T14:44:39;6.70;80.70
16503;DHT22;53067;48.114;11.694;2022-12-20T14:47:24;6.60;80.70
16503;DHT22;53067;48.114;11.694;2022-12-20T14:49:57;6.60;80.70
16503;DHT22;53067;48.114;11.694;2022-12-20T14:52:34;6.60;80.70
16503;DHT22;53067;48.114;11.694;2022-12-20T14:55:10;6.50;80.80
16503;DHT22;53067;48.114;11.694;2022-12-20T14:57:49;6.50;80.70
16503;DHT22;53067;48.114;11.694;2022-12-20T15:08:20;6.30;81.10
16503;DHT22;53067;48.114;11.694;2022-12-20T15:11:00;6.20;81.40
16503;DHT22;53067;48.114;11.694;2022-12-20T15:13:34;6.20;81.40
16503;DHT22;53067;48.114;11.694;2022-12-20T15:18:41;6.10;82.20
16503;DHT22;53067;48.114;11.694;2022-12-20T15:21:16;6.00;82.70
16503;DHT22;53067;48.114;11.694;2022-12-20T15:23:50;5.90;82.70
16503;DHT22;53067;48.114;11.694;2022-12-20T15:26:20;5.90;82.60
16503;DHT22;53067;48.114;11.694;2022-12-20T15:28:49;5.90;82.70
16503;DHT22;53067;48.114;11.694;2022-12-20T15:31:18;5.90;82.70
16503;DHT22;53067;48.114;11.694;2022-12-20T15:33:46;5.90;82.80
16503;DHT22;53067;48.114;11.694;2022-12-20T15:36:24;5.90;82.80
16503;DHT22;53067;48.114;11.694;2022-12-20T15:38:48;5.80;82.90
16503;DHT22;53067;48.114;11.694;2022-12-20T15:41:20;5.80;83.10
16503;DHT22;53067;48.114;11.694;2022-12-20T15:43:47;5.70;83.50
16503;DHT22;53067;48.114;11.694;2022-12-20T15:46:16;5.70;83.60
16503;DHT22;53067;48.114;11.694;2022-12-20T15:48:43;5.60;83.90
16503;DHT22;53067;48.114;11.694;2022-12-20T15:51:25;5.60;83.90
16503;DHT22;53067;48.114;11.694;2022-12-20T15:53:47;5.60;83.90
16503;DHT22;53067;48.114;11.694;2022-12-20T15:56:17;5.60;83.70
16503;DHT22;53067;48.114;11.694;2022-12-20T15:58:46;5.60;83.70
16503;DHT22;53067;48.114;11.694;2022-12-20T16:01:21;5.60;83.70
16503;DHT22;53067;48.114;11.694;2022-12-20T16:03:45;5.50;83.70
16503;DHT22;53067;48.114;11.694;2022-12-20T16:06:12;5.50;83.90
16503;DHT22;53067;48.114;11.694;2022-12-20T16:08:40;5.50;84.00
16503;DHT22;53067;48.114;11.694;2022-12-20T16:11:22;5.50;83.90
16503;DHT22;53067;48.114;11.694;2022-12-20T16:13:52;5.40;84.20
16503;DHT22;53067;48.114;11.694;2022-12-20T16:16:22;5.40;84.60
16503;DHT22;53067;48.114;11.694;2022-12-20T16:18:51;5.40;85.20
16503;DHT22;53067;48.114;11.694;2022-12-20T16:21:25;5.40;85.20
16503;DHT22;53067;48.114;11.694;2022-12-20T16:23:53;5.40;85.30
16503;DHT22;53067;48.114;11.694;2022-12-20T16:26:22;5.40;85.90
16503;DHT22;53067;48.114;11.694;2022-12-20T16:28:51;5.40;85.10
16503;DHT22;53067;48.114;11.694;2022-12-20T16:31:28;5.30;84.90
16503;DHT22;53067;48.114;11.694;2022-12-20T16:34:01;5.30;84.90
16503;DHT22;53067;48.114;11.694;2022-12-20T16:36:30;5.30;84.90
16503;DHT22;53067;48.114;11.694;2022-12-20T16:38:57;5.30;85.00
16503;DHT22;53067;48.114;11.694;2022-12-20T16:41:27;5.20;84.90
16503;DHT22;53067;48.114;11.694;2022-12-20T16:43:56;5.20;85.30
16503;DHT22;53067;48.114;11.694;2022-12-20T16:46:26;5.20;85.00
16503;DHT22;53067;48.114;11.694;2022-12-20T16:48:55;5.20;85.10
16503;DHT22;53067;48.114;11.694;2022-12-20T16:51:37;5.20;85.00
16503;DHT22;53067;48.114;11.694;2022-12-20T16:54:06;5.20;85.00
16503;DHT22;53067;48.114;11.694;2022-12-20T16:56:34;5.20;85.10
16503;DHT22;53067;48.114;11.694;2022-12-20T16:59:01;5.20;85.30
16503;DHT22;53067;48.114;11.694;2022-12-20T17:01:34;5.20;85.60
16503;DHT22;53067;48.114;11.694;2022-12-20T17:04:02;5.10;85.70
16503;DHT22;53067;48.114;11.694;2022-12-20T17:06:30;5.10;85.50
16503;DHT22;53067;48.114;11.694;2022-12-20T17:08:58;5.10;85.40
16503;DHT22;53067;48.114;11.694;2022-12-20T17:11:28;5.20;85.30
16503;DHT22;53067;48.114;11.694;2022-12-20T17:13:58;5.20;85.30
16503;DHT22;53067;48.114;11.694;2022-12-20T17:16:26;5.20;85.20
16503;DHT22;53067;48.114;11.694;2022-12-20T17:18:55;5.10;85.20
16503;DHT22;53067;48.114;11.694;2022-12-20T17:23:56;5.10;85.40